sensor_id;sensor_type;location;lat;lon;timestamp;temperature;humidity
21193;DHT22;10754;51.106;7.164;2022-08-19T00:00:08;23.20;99.90
21193;DHT22;10754;51.106;7.164;2022-08-19T00:02:35;23.10;99.90
21193;DHT22;10754;51.106;7.164;2022-08-19T00:05:01;23.10;99.90
21193;DHT22;10754;51.106;7.164;2022-08-19T00:07:26;23.10;99.90
21193;DHT22;10754;51.106;7.164;2022-08-19T00:09:52;23.10;99.90
21193;DHT22;10754;51.106;7.164;2022-08-19T00:12:17;23.10;99.90
21193;DHT22;10754;51.106;7.164;2022-08-19T00:14:43;23.10;99.90
21193;DHT22;10754;51.106;7.164;2022-08-19T00:17:09;23.10;99.90
21193;DHT22;10754;51.106;7.164;2022-08-19T00:19:37;23.00;99.90
21193;DHT22;10754;51.106;7.164;2022-08-19T00:22:04;23.00;99.90
21193;DHT22;10754;51.106;7.164;2022-08-19T00:24:31;23.00;99.90
21193;DHT22;10754;51.106;7.164;2022-08-19T00:26:57;23.00;99.90
21193;DHT22;10754;51.106;7.164;2022-08-19T00:29:24;23.00;99.90
21193;DHT22;10754;51.106;7.164;2022-08-19T00:31:50;23.00;99.90
21193;DHT22;10754;51.106;7.164;2022-08-19T00:34:18;22.90;99.90
21193;DHT22;10754;51.106;7.164;2022-08-19T00:36:45;22.90;99.90
21193;DHT22;10754;51.106;7.164;2022-08-19T00:39:11;22.90;99.90
21193;DHT22;10754;51.106;7.164;2022-08-19T00:41:37;22.90;99.90
21193;DHT22;10754;51.106;7.164;2022-08-19T00:44:05;22.90;99.90
21193;DHT22;10754;51.106;7.164;2022-08-19T00:46:32;22.90;99.90
21193;DHT22;10754;51.106;7.164;2022-08-19T00:49:00;22.90;99.90
21193;DHT22;10754;51.106;7.164;2022-08-19T00:51:30;22.90;99.90
21193;DHT22;10754;51.106;7.164;2022-08-19T00:53:58;22.90;99.90
21193;DHT22;10754;51.106;7.164;2022-08-19T00:56:26;22.90;99.90
21193;DHT22;10754;51.106;7.164;2022-08-19T00:58:54;22.90;99.90
21193;DHT22;10754;51.106;7.164;2022-08-19T01:01:20;22.90;99.90
21193;DHT22;10754;51.106;7.164;2022-08-19T01:03:46;22.80;99.90
21193;DHT22;10754;51.106;7.164;2022-08-19T01:06:11;22.80;99.90
21193;DHT22;10754;51.106;7.164;2022-08-19T01:08:37;22.80;99.90
21193;DHT22;10754;51.106;7.164;2022-08-19T01:11:02;22.80;99.90
21193;DHT22;10754;51.106;7.164;2022-08-19T01:13:32;22.80;99.90
21193;DHT22;10754;51.106;7.164;2022-08-19T01:16:05;22.80;99.90
21193;DHT22;10754;51.106;7.164;2022-08-19T01:18:35;22.80;99.90
21193;DHT22;10754;51.106;7.164;2022-08-19T01:21:08;22.70;99.90
21193;DHT22;10754;51.106;7.164;2022-08-19T01:23:34;22.70;99.90
21193;DHT22;10754;51.106;7.164;2022-08-19T01:26:14;22.70;99.90
21193;DHT22;10754;51.106;7.164;2022-08-19T01:28:42;22.70;99.90
21193;DHT22;10754;51.106;7.164;2022-08-19T01:31:14;22.70;99.90
21193;DHT22;10754;51.106;7.164;2022-08-19T01:33:40;22.70;99.90
21193;DHT22;10754;51.106;7.164;2022-08-19T01:36:09;22.60;99.90
21193;DHT22;10754;51.106;7.164;2022-08-19T01:38:38;22.60;99.90
21193;DHT22;10754;51.106;7.164;2022-08-19T01:41:05;22.60;99.90
21193;DHT22;10754;51.106;7.164;2022-08-19T01:43:31;22.60;99.90
21193;DHT22;10754;51.106;7.164;2022-08-19T01:45:57;22.60;99.90
21193;DHT22;10754;51.106;7.164;2022-08-19T01:48:23;22.60;99.90
21193;DHT22;10754;51.106;7.164;2022-08-19T01:50:49;22.60;99.90
21193;DHT22;10754;51.106;7.164;2022-08-19T01:53:15;22.50;99.90
21193;DHT22;10754;51.106;7.164;2022-08-19T01:55:42;22.50;99.90
21193;DHT22;10754;51.106;7.164;2022-08-19T01:58:19;22.50;99.90
21193;DHT22;10754;51.106;7.164;2022-08-19T02:00:46;22.60;99.90
21193;DHT22;10754;51.106;7.164;2022-08-19T02:03:12;22.50;99.90
21193;DHT22;10754;51.106;7.164;2022-08-19T02:05:38;22.50;99.90
21193;DHT22;10754;51.106;7.164;2022-08-19T02:08:05;22.50;99.90
21193;DHT22;10754;51.106;7.164;2022-08-19T02:10:31;22.50;99.90
21193;DHT22;10754;51.106;7.164;2022-08-19T02:12:57;22.40;99.90
21193;DHT22;10754;51.106;7.164;2022-08-19T02:15:23;22.30;99.90
21193;DHT22;10754;51.106;7.164;2022-08-19T02:17:49;22.30;99.90
21193;DHT22;10754;51.106;7.164;2022-08-19T02:20:15;22.30;99.90
21193;DHT22;10754;51.106;7.164;2022-08-19T02:22:41;22.30;99.90
21193;DHT22;10754;51.106;7.164;2022-08-19T02:25:09;22.40;99.90
21193;DHT22;10754;51.106;7.164;2022-08-19T02:27:35;22.40;99.90
21193;DHT22;10754;51.106;7.164;2022-08-19T02:30:00;22.30;99.90
21193;DHT22;10754;51.106;7.164;2022-08-19T02:32:26;22.30;99.90
21193;DHT22;10754;51.106;7.164;2022-08-19T02:34:52;22.30;99.90
21193;DHT22;10754;51.106;7.164;2022-08-19T02:37:18;22.30;99.90
21193;DHT22;10754;51.106;7.164;2022-08-19T02:40:02;22.30;99.90
21193;DHT22;10754;51.106;7.164;2022-08-19T02:42:28;22.30;99.90
21193;DHT22;10754;51.106;7.164;2022-08-19T02:44:55;22.30;99.90
21193;DHT22;10754;51.106;7.164;2022-08-19T02:47:21;22.30;99.90
21193;DHT22;10754;51.106;7.164;2022-08-19T02:49:47;22.30;99.90
21193;DHT22;10754;51.106;7.164;2022-08-19T02:52:15;22.30;99.90
21193;DHT22;10754;51.106;7.164;2022-08-19T02:54:40;22.30;99.90
21193;DHT22;10754;51.106;7.164;2022-08-19T02:57:06;22.30;99.90
21193;DHT22;10754;51.106;7.164;2022-08-19T02:59:32;22.30;99.90
21193;DHT22;10754;51.106;7.164;2022-08-19T03:01:57;22.20;99.90
21193;DHT22;10754;51.106;7.164;2022-08-19T03:04:23;22.20;99.90
21193;DHT22;10754;51.106;7.164;2022-08-19T03:06:49;22.20;99.90
21193;DHT22;10754;51.106;7.164;2022-08-19T03:09:16;22.20;99.90
21193;DHT22;10754;51.106;7.164;2022-08-19T03:11:42;22.20;99.90
21193;DHT22;10754;51.106;7.164;2022-08-19T03:14:09;22.20;99.90
21193;DHT22;10754;51.106;7.164;2022-08-19T03:16:41;22.20;99.90
21193;DHT22;10754;51.106;7.164;2022-08-19T03:19:07;22.20;99.90
21193;DHT22;10754;51.106;7.164;2022-08-19T03:21:34;22.20;99.90
21193;DHT22;10754;51.106;7.164;2022-08-19T03:24:06;22.20;99.90
21193;DHT22;10754;51.106;7.164;2022-08-19T03:26:33;22.20;99.90
21193;DHT22;10754;51.106;7.164;2022-08-19T03:29:03;22.10;99.90
21193;DHT22;10754;51.106;7.164;2022-08-19T03:31:29;22.10;99.90
21193;DHT22;10754;51.106;7.164;2022-08-19T03:33:56;22.10;99.90
21193;DHT22;10754;51.106;7.164;2022-08-19T03:36:24;22.00;99.90
21193;DHT22;10754;51.106;7.164;2022-08-19T03:38:57;22.00;99.90
21193;DHT22;10754;51.106;7.164;2022-08-19T03:41:26;22.10;99.90
21193;DHT22;10754;51.106;7.164;2022-08-19T03:43:53;22.10;99.90
21193;DHT22;10754;51.106;7.164;2022-08-19T03:46:37;22.10;99.90
21193;DHT22;10754;51.106;7.164;2022-08-19T03:49:04;22.10;99.90
21193;DHT22;10754;51.106;7.164;2022-08-19T03:51:36;22.00;99.90
21193;DHT22;10754;51.106;7.164;2022-08-19T03:54:04;22.00;99.90
21193;DHT22;10754;51.106;7.164;2022-08-19T03:56:32;22.00;99.90
21193;DHT22;10754;51.106;7.164;2022-08-19T03:58:58;22.00;99.90
21193;DHT22;10754;51.106;7.164;2022-08-19T04:01:26;22.00;99.90
21193;DHT22;10754;51.106;7.164;2022-08-19T04:03:53;22.00;99.90
21193;DHT22;10754;51.106;7.164;2022-08-19T04:06:25;22.00;99.90
21193;DHT22;10754;51.106;7.164;2022-08-19T04:08:52;22.00;99.90
21193;DHT22;10754;51.106;7.164;2022-08-19T04:11:25;22.00;99.90
21193;DHT22;10754;51.106;7.164;2022-08-19T04:13:51;22.00;99.90
21193;DHT22;10754;51.106;7.164;2022-08-19T04:16:24;22.00;99.90
21193;DHT22;10754;51.106;7.164;2022-08-19T04:18:50;22.00;99.90
21193;DHT22;10754;51.106;7.164;2022-08-19T04:21:18;22.00;99.90
21193;DHT22;10754;51.106;7.164;2022-08-19T04:23:45;22.00;99.90
21193;DHT22;10754;51.106;7.164;2022-08-19T04:26:15;22.00;99.90
21193;DHT22;10754;51.106;7.164;2022-08-19T04:28:41;22.00;99.90
21193;DHT22;10754;51.106;7.164;2022-08-19T04:31:16;22.00;99.90
21193;DHT22;10754;51.106;7.164;2022-08-19T04:33:42;22.00;99.90
21193;DHT22;10754;51.106;7.164;2022-08-19T04:36:08;21.90;99.90
21193;DHT22;10754;51.106;7.164;2022-08-19T04:38:40;21.90;99.90
21193;DHT22;10754;51.106;7.164;2022-08-19T04:41:05;21.90;99.90
21193;DHT22;10754;51.106;7.164;2022-08-19T04:43:49;21.90;99.90
21193;DHT22;10754;51.106;7.164;2022-08-19T04:46:15;21.90;99.90
21193;DHT22;10754;51.106;7.164;2022-08-19T04:48:42;21.90;99.90
21193;DHT22;10754;51.106;7.164;2022-08-19T04:51:10;21.90;99.90
21193;DHT22;10754;51.106;7.164;2022-08-19T04:53:39;21.90;99.90
21193;DHT22;10754;51.106;7.164;2022-08-19T04:56:16;21.90;99.90
21193;DHT22;10754;51.106;7.164;2022-08-19T04:58:43;21.90;99.90
21193;DHT22;10754;51.106;7.164;2022-08-19T05:01:12;21.80;99.90
21193;DHT22;10754;51.106;7.164;2022-08-19T05:03:38;21.80;1.00
21193;DHT22;10754;51.106;7.164;2022-08-19T05:06:10;21.90;99.90
21193;DHT22;10754;51.106;7.164;2022-08-19T05:08:38;22.00;99.90
21193;DHT22;10754;51.106;7.164;2022-08-19T05:11:16;21.90;1.40
21193;DHT22;10754;51.106;7.164;2022-08-19T05:13:43;22.00;1.40
21193;DHT22;10754;51.106;7.164;2022-08-19T05:16:10;22.00;1.40
21193;DHT22;10754;51.106;7.164;2022-08-19T05:18:37;22.00;99.90
21193;DHT22;10754;51.106;7.164;2022-08-19T05:21:22;22.00;99.90
21193;DHT22;10754;51.106;7.164;2022-08-19T05:24:06;22.00;1.00
21193;DHT22;10754;51.106;7.164;2022-08-19T05:26:33;22.00;1.00
21193;DHT22;10754;51.106;7.164;2022-08-19T05:28:59;22.00;1.00
21193;DHT22;10754;51.106;7.164;2022-08-19T05:31:24;22.00;1.00
21193;DHT22;10754;51.106;7.164;2022-08-19T05:33:50;22.00;1.00
21193;DHT22;10754;51.106;7.164;2022-08-19T05:36:16;22.00;1.00
21193;DHT22;10754;51.106;7.164;2022-08-19T05:38:41;22.00;1.00
21193;DHT22;10754;51.106;7.164;2022-08-19T05:41:09;22.00;1.00
21193;DHT22;10754;51.106;7.164;2022-08-19T05:43:35;22.10;1.00
21193;DHT22;10754;51.106;7.164;2022-08-19T05:46:00;22.10;1.00
21193;DHT22;10754;51.106;7.164;2022-08-19T05:48:26;22.10;1.00
21193;DHT22;10754;51.106;7.164;2022-08-19T05:50:52;22.10;1.00
21193;DHT22;10754;51.106;7.164;2022-08-19T05:53:18;22.00;1.00
21193;DHT22;10754;51.106;7.164;2022-08-19T05:55:43;22.10;1.00
21193;DHT22;10754;51.106;7.164;2022-08-19T05:58:09;22.10;1.00
21193;DHT22;10754;51.106;7.164;2022-08-19T06:00:36;22.10;1.00
21193;DHT22;10754;51.106;7.164;2022-08-19T06:03:02;22.10;1.00
21193;DHT22;10754;51.106;7.164;2022-08-19T06:05:28;22.10;1.00
21193;DHT22;10754;51.106;7.164;2022-08-19T06:07:54;22.20;1.00
21193;DHT22;10754;51.106;7.164;2022-08-19T06:10:19;22.20;1.00
21193;DHT22;10754;51.106;7.164;2022-08-19T06:12:47;22.20;1.00
21193;DHT22;10754;51.106;7.164;2022-08-19T06:15:14;22.20;1.00
21193;DHT22;10754;51.106;7.164;2022-08-19T06:17:40;22.20;1.00
21193;DHT22;10754;51.106;7.164;2022-08-19T06:20:09;22.30;1.00
21193;DHT22;10754;51.106;7.164;2022-08-19T06:22:41;22.30;1.00
21193;DHT22;10754;51.106;7.164;2022-08-19T06:25:07;22.30;1.00
21193;DHT22;10754;51.106;7.164;2022-08-19T06:27:35;22.30;1.00
21193;DHT22;10754;51.106;7.164;2022-08-19T06:30:02;22.40;1.00
21193;DHT22;10754;51.106;7.164;2022-08-19T06:32:27;22.50;1.00
21193;DHT22;10754;51.106;7.164;2022-08-19T06:34:53;22.50;1.00
21193;DHT22;10754;51.106;7.164;2022-08-19T06:37:20;22.50;1.00
21193;DHT22;10754;51.106;7.164;2022-08-19T06:39:47;22.60;1.00
21193;DHT22;10754;51.106;7.164;2022-08-19T06:42:13;22.60;1.00
21193;DHT22;10754;51.106;7.164;2022-08-19T06:44:43;22.60;1.00
21193;DHT22;10754;51.106;7.164;2022-08-19T06:47:13;22.70;1.00
21193;DHT22;10754;51.106;7.164;2022-08-19T06:49:39;22.80;1.00
21193;DHT22;10754;51.106;7.164;2022-08-19T06:52:05;22.80;1.00
21193;DHT22;10754;51.106;7.164;2022-08-19T06:54:31;22.90;1.00
21193;DHT22;10754;51.106;7.164;2022-08-19T06:56:58;22.90;1.00
21193;DHT22;10754;51.106;7.164;2022-08-19T06:59:28;23.00;1.00
21193;DHT22;10754;51.106;7.164;2022-08-19T07:01:58;23.00;1.00
21193;DHT22;10754;51.106;7.164;2022-08-19T07:04:26;23.10;1.00
21193;DHT22;10754;51.106;7.164;2022-08-19T07:07:04;23.10;1.00
21193;DHT22;10754;51.106;7.164;2022-08-19T07:09:32;23.20;1.00
21193;DHT22;10754;51.106;7.164;2022-08-19T07:11:58;23.30;1.00
21193;DHT22;10754;51.106;7.164;2022-08-19T07:14:26;23.30;1.00
21193;DHT22;10754;51.106;7.164;2022-08-19T07:16:54;23.40;1.00
21193;DHT22;10754;51.106;7.164;2022-08-19T07:19:20;23.40;1.00
21193;DHT22;10754;51.106;7.164;2022-08-19T07:21:48;23.50;1.00
21193;DHT22;10754;51.106;7.164;2022-08-19T07:24:15;23.50;1.00
21193;DHT22;10754;51.106;7.164;2022-08-19T07:26:42;23.60;1.00
21193;DHT22;10754;51.106;7.164;2022-08-19T07:29:10;23.70;1.00
21193;DHT22;10754;51.106;7.164;2022-08-19T07:31:35;23.70;1.00
21193;DHT22;10754;51.106;7.164;2022-08-19T07:34:04;23.80;1.00
21193;DHT22;10754;51.106;7.164;2022-08-19T07:36:33;23.80;1.00
21193;DHT22;10754;51.106;7.164;2022-08-19T07:39:03;23.90;1.00
21193;DHT22;10754;51.106;7.164;2022-08-19T07:41:30;23.90;1.00
21193;DHT22;10754;51.106;7.164;2022-08-19T07:43:58;24.00;1.00
21193;DHT22;10754;51.106;7.164;2022-08-19T07:46:23;24.00;1.00
21193;DHT22;10754;51.106;7.164;2022-08-19T07:48:49;24.00;1.00
21193;DHT22;10754;51.106;7.164;2022-08-19T07:51:19;24.10;1.00
21193;DHT22;10754;51.106;7.164;2022-08-19T07:53:46;24.20;1.00
21193;DHT22;10754;51.106;7.164;2022-08-19T07:56:13;24.30;1.00
21193;DHT22;10754;51.106;7.164;2022-08-19T07:58:41;24.30;1.00
21193;DHT22;10754;51.106;7.164;2022-08-19T08:01:09;24.30;1.00
21193;DHT22;10754;51.106;7.164;2022-08-19T08:03:36;24.30;1.00
21193;DHT22;10754;51.106;7.164;2022-08-19T08:06:21;24.40;1.00
21193;DHT22;10754;51.106;7.164;2022-08-19T08:09:06;24.40;1.00
21193;DHT22;10754;51.106;7.164;2022-08-19T08:11:42;24.50;1.40
21193;DHT22;10754;51.106;7.164;2022-08-19T08:14:10;24.60;99.90
21193;DHT22;10754;51.106;7.164;2022-08-19T08:16:37;24.60;99.90
21193;DHT22;10754;51.106;7.164;2022-08-19T08:19:06;24.60;99.90
21193;DHT22;10754;51.106;7.164;2022-08-19T08:21:32;24.50;99.90
21193;DHT22;10754;51.106;7.164;2022-08-19T08:23:58;24.50;99.90
21193;DHT22;10754;51.106;7.164;2022-08-19T08:26:24;24.60;99.90
21193;DHT22;10754;51.106;7.164;2022-08-19T08:28:50;24.60;99.90
21193;DHT22;10754;51.106;7.164;2022-08-19T08:31:16;24.60;99.90
21193;DHT22;10754;51.106;7.164;2022-08-19T08:33:43;24.70;99.90
21193;DHT22;10754;51.106;7.164;2022-08-19T08:36:09;24.70;99.90
21193;DHT22;10754;51.106;7.164;2022-08-19T08:38:36;24.70;99.90
21193;DHT22;10754;51.106;7.164;2022-08-19T08:41:21;24.70;99.90
21193;DHT22;10754;51.106;7.164;2022-08-19T08:43:51;24.80;99.90
21193;DHT22;10754;51.106;7.164;2022-08-19T08:49:41;24.90;99.90
21193;DHT22;10754;51.106;7.164;2022-08-19T08:51:52;25.00;99.90
21193;DHT22;10754;51.106;7.164;2022-08-19T08:54:24;24.90;99.90
21193;DHT22;10754;51.106;7.164;2022-08-19T08:56:52;25.00;99.90
21193;DHT22;10754;51.106;7.164;2022-08-19T08:59:34;25.00;99.90
21193;DHT22;10754;51.106;7.164;2022-08-19T09:02:01;25.10;99.90
21193;DHT22;10754;51.106;7.164;2022-08-19T09:04:27;25.00;99.90
21193;DHT22;10754;51.106;7.164;2022-08-19T09:13:02;25.20;99.90
21193;DHT22;10754;51.106;7.164;2022-08-19T09:15:38;25.30;99.90
21193;DHT22;10754;51.106;7.164;2022-08-19T09:18:05;25.40;99.90
21193;DHT22;10754;51.106;7.164;2022-08-19T09:20:31;25.50;99.90
21193;DHT22;10754;51.106;7.164;2022-08-19T09:22:57;25.60;99.90
21193;DHT22;10754;51.106;7.164;2022-08-19T09:25:24;25.60;99.90
21193;DHT22;10754;51.106;7.164;2022-08-19T09:27:51;25.70;99.90
21193;DHT22;10754;51.106;7.164;2022-08-19T09:30:25;25.80;99.90
21193;DHT22;10754;51.106;7.164;2022-08-19T09:32:51;25.90;99.90
21193;DHT22;10754;51.106;7.164;2022-08-19T09:35:24;25.90;99.90
21193;DHT22;10754;51.106;7.164;2022-08-19T09:37:50;26.10;99.90
21193;DHT22;10754;51.106;7.164;2022-08-19T09:40:17;26.20;99.90
21193;DHT22;10754;51.106;7.164;2022-08-19T09:42:44;26.30;99.90
21193;DHT22;10754;51.106;7.164;2022-08-19T09:45:17;26.10;99.90
21193;DHT22;10754;51.106;7.164;2022-08-19T09:47:45;26.10;99.90
21193;DHT22;10754;51.106;7.164;2022-08-19T09:50:12;26.10;99.90
21193;DHT22;10754;51.106;7.164;2022-08-19T09:52:38;26.20;99.90
21193;DHT22;10754;51.106;7.164;2022-08-19T09:55:09;26.30;99.90
21193;DHT22;10754;51.106;7.164;2022-08-19T09:57:35;26.40;99.90
21193;DHT22;10754;51.106;7.164;2022-08-19T10:00:01;26.50;99.90
21193;DHT22;10754;51.106;7.164;2022-08-19T10:02:27;26.50;99.90
21193;DHT22;10754;51.106;7.164;2022-08-19T10:04:53;26.50;99.90
21193;DHT22;10754;51.106;7.164;2022-08-19T10:07:38;26.50;99.90
21193;DHT22;10754;51.106;7.164;2022-08-19T10:10:04;26.50;99.90
21193;DHT22;10754;51.106;7.164;2022-08-19T10:12:31;26.60;99.90
21193;DHT22;10754;51.106;7.164;2022-08-19T10:14:58;26.70;99.90
21193;DHT22;10754;51.106;7.164;2022-08-19T10:17:23;26.80;99.90
21193;DHT22;10754;51.106;7.164;2022-08-19T10:19:50;27.00;99.90
21193;DHT22;10754;51.106;7.164;2022-08-19T10:22:18;27.20;99.90
21193;DHT22;10754;51.106;7.164;2022-08-19T10:24:45;27.30;99.90
21193;DHT22;10754;51.106;7.164;2022-08-19T10:27:10;27.50;99.90
21193;DHT22;10754;51.106;7.164;2022-08-19T10:29:38;27.70;99.90
21193;DHT22;10754;51.106;7.164;2022-08-19T10:32:06;28.00;99.90
21193;DHT22;10754;51.106;7.164;2022-08-19T10:34:34;28.20;99.90
21193;DHT22;10754;51.106;7.164;2022-08-19T10:37:00;28.50;99.90
21193;DHT22;10754;51.106;7.164;2022-08-19T10:39:26;28.60;99.90
21193;DHT22;10754;51.106;7.164;2022-08-19T10:41:54;28.90;99.90
21193;DHT22;10754;51.106;7.164;2022-08-19T10:44:21;28.80;99.90
21193;DHT22;10754;51.106;7.164;2022-08-19T10:46:48;28.50;99.90
21193;DHT22;10754;51.106;7.164;2022-08-19T10:49:14;28.70;99.90
21193;DHT22;10754;51.106;7.164;2022-08-19T10:51:41;29.00;99.90
21193;DHT22;10754;51.106;7.164;2022-08-19T10:54:27;29.40;99.90
21193;DHT22;10754;51.106;7.164;2022-08-19T10:57:13;29.70;99.90
21193;DHT22;10754;51.106;7.164;2022-08-19T10:59:38;29.90;99.90
21193;DHT22;10754;51.106;7.164;2022-08-19T11:02:07;30.20;99.90
21193;DHT22;10754;51.106;7.164;2022-08-19T11:04:35;29.80;99.90
21193;DHT22;10754;51.106;7.164;2022-08-19T11:07:00;29.50;99.90
21193;DHT22;10754;51.106;7.164;2022-08-19T11:09:26;30.00;99.90
21193;DHT22;10754;51.106;7.164;2022-08-19T11:11:55;30.50;99.90
21193;DHT22;10754;51.106;7.164;2022-08-19T11:14:22;30.00;99.90
21193;DHT22;10754;51.106;7.164;2022-08-19T11:16:51;29.70;99.90
21193;DHT22;10754;51.106;7.164;2022-08-19T11:19:18;29.60;99.90
21193;DHT22;10754;51.106;7.164;2022-08-19T11:21:47;30.20;99.90
21193;DHT22;10754;51.106;7.164;2022-08-19T11:24:24;30.30;99.90
21193;DHT22;10754;51.106;7.164;2022-08-19T11:26:52;30.70;99.90
21193;DHT22;10754;51.106;7.164;2022-08-19T11:29:20;31.10;99.90
21193;DHT22;10754;51.106;7.164;2022-08-19T11:31:47;31.10;99.90
21193;DHT22;10754;51.106;7.164;2022-08-19T11:34:17;30.50;99.90
21193;DHT22;10754;51.106;7.164;2022-08-19T11:36:44;30.20;99.90
21193;DHT22;10754;51.106;7.164;2022-08-19T11:39:14;30.10;99.90
21193;DHT22;10754;51.106;7.164;2022-08-19T11:41:40;30.30;99.90
21193;DHT22;10754;51.106;7.164;2022-08-19T11:44:05;30.30;99.90
21193;DHT22;10754;51.106;7.164;2022-08-19T11:46:33;30.00;99.90
21193;DHT22;10754;51.106;7.164;2022-08-19T11:49:00;29.80;99.90
21193;DHT22;10754;51.106;7.164;2022-08-19T11:51:27;30.40;99.90
21193;DHT22;10754;51.106;7.164;2022-08-19T11:53:54;30.50;99.90
21193;DHT22;10754;51.106;7.164;2022-08-19T11:56:20;30.80;99.90
21193;DHT22;10754;51.106;7.164;2022-08-19T11:58:46;31.80;99.90
21193;DHT22;10754;51.106;7.164;2022-08-19T12:01:14;32.20;99.90
21193;DHT22;10754;51.106;7.164;2022-08-19T12:03:44;33.60;99.90
21193;DHT22;10754;51.106;7.164;2022-08-19T12:06:13;34.80;99.90
21193;DHT22;10754;51.106;7.164;2022-08-19T12:08:43;35.20;99.90
21193;DHT22;10754;51.106;7.164;2022-08-19T12:11:10;35.10;99.90
21193;DHT22;10754;51.106;7.164;2022-08-19T12:13:37;35.60;99.90
21193;DHT22;10754;51.106;7.164;2022-08-19T12:16:17;35.20;99.90
21193;DHT22;10754;51.106;7.164;2022-08-19T12:18:43;35.90;99.90
21193;DHT22;10754;51.106;7.164;2022-08-19T12:21:12;36.10;99.90
21193;DHT22;10754;51.106;7.164;2022-08-19T12:23:39;35.70;99.90
21193;DHT22;10754;51.106;7.164;2022-08-19T12:26:05;35.00;99.90
21193;DHT22;10754;51.106;7.164;2022-08-19T12:28:31;33.80;99.90
21193;DHT22;10754;51.106;7.164;2022-08-19T12:30:57;33.30;99.90
21193;DHT22;10754;51.106;7.164;2022-08-19T12:33:23;33.20;99.90
21193;DHT22;10754;51.106;7.164;2022-08-19T12:35:53;32.80;99.90
21193;DHT22;10754;51.106;7.164;2022-08-19T12:38:19;32.80;99.90
21193;DHT22;10754;51.106;7.164;2022-08-19T12:40:48;32.40;99.90
21193;DHT22;10754;51.106;7.164;2022-08-19T12:43:14;33.90;99.90
21193;DHT22;10754;51.106;7.164;2022-08-19T12:45:41;36.20;99.90
21193;DHT22;10754;51.106;7.164;2022-08-19T12:48:07;37.50;99.90
21193;DHT22;10754;51.106;7.164;2022-08-19T12:50:33;38.40;99.90
21193;DHT22;10754;51.106;7.164;2022-08-19T12:52:58;38.80;99.90
21193;DHT22;10754;51.106;7.164;2022-08-19T12:55:24;38.90;92.00
21193;DHT22;10754;51.106;7.164;2022-08-19T12:57:50;39.00;96.20
21193;DHT22;10754;51.106;7.164;2022-08-19T13:00:21;39.20;89.70
21193;DHT22;10754;51.106;7.164;2022-08-19T13:02:49;39.20;95.00
21193;DHT22;10754;51.106;7.164;2022-08-19T13:05:20;38.40;98.50
21193;DHT22;10754;51.106;7.164;2022-08-19T13:07:48;36.60;99.90
21193;DHT22;10754;51.106;7.164;2022-08-19T13:10:17;36.00;99.90
21193;DHT22;10754;51.106;7.164;2022-08-19T13:12:44;35.10;99.90
21193;DHT22;10754;51.106;7.164;2022-08-19T13:15:11;34.70;99.90
21193;DHT22;10754;51.106;7.164;2022-08-19T13:17:38;34.20;99.90
21193;DHT22;10754;51.106;7.164;2022-08-19T13:20:04;33.80;99.90
21193;DHT22;10754;51.106;7.164;2022-08-19T13:22:32;34.00;99.90
21193;DHT22;10754;51.106;7.164;2022-08-19T13:24:58;35.50;99.90
21193;DHT22;10754;51.106;7.164;2022-08-19T13:27:23;36.80;99.90
21193;DHT22;10754;51.106;7.164;2022-08-19T13:29:49;37.40;99.90
21193;DHT22;10754;51.106;7.164;2022-08-19T13:32:33;37.70;99.90
21193;DHT22;10754;51.106;7.164;2022-08-19T13:35:17;37.50;99.90
21193;DHT22;10754;51.106;7.164;2022-08-19T13:37:43;37.30;99.90
21193;DHT22;10754;51.106;7.164;2022-08-19T13:40:17;37.50;99.90
21193;DHT22;10754;51.106;7.164;2022-08-19T13:42:45;37.00;99.70
21193;DHT22;10754;51.106;7.164;2022-08-19T13:45:12;35.50;99.90
21193;DHT22;10754;51.106;7.164;2022-08-19T13:47:39;35.30;99.90
21193;DHT22;10754;51.106;7.164;2022-08-19T13:50:09;36.50;99.90
21193;DHT22;10754;51.106;7.164;2022-08-19T13:52:36;37.00;99.90
21193;DHT22;10754;51.106;7.164;2022-08-19T13:55:01;36.90;93.50
21193;DHT22;10754;51.106;7.164;2022-08-19T13:57:27;36.30;99.90
21193;DHT22;10754;51.106;7.164;2022-08-19T13:59:52;35.70;99.90
21193;DHT22;10754;51.106;7.164;2022-08-19T14:02:18;35.50;99.90
21193;DHT22;10754;51.106;7.164;2022-08-19T14:04:44;35.50;99.90
21193;DHT22;10754;51.106;7.164;2022-08-19T14:07:09;34.40;99.90
21193;DHT22;10754;51.106;7.164;2022-08-19T14:09:35;33.80;99.90
21193;DHT22;10754;51.106;7.164;2022-08-19T14:12:01;33.70;99.90
21193;DHT22;10754;51.106;7.164;2022-08-19T14:14:26;33.20;99.90
21193;DHT22;10754;51.106;7.164;2022-08-19T14:16:51;32.80;99.90
21193;DHT22;10754;51.106;7.164;2022-08-19T14:19:17;32.70;99.90
21193;DHT22;10754;51.106;7.164;2022-08-19T14:21:43;32.50;99.90
21193;DHT22;10754;51.106;7.164;2022-08-19T14:24:08;32.40;99.90
21193;DHT22;10754;51.106;7.164;2022-08-19T14:26:34;32.20;99.90
21193;DHT22;10754;51.106;7.164;2022-08-19T14:28:59;32.10;99.90
21193;DHT22;10754;51.106;7.164;2022-08-19T14:31:26;32.10;99.90
21193;DHT22;10754;51.106;7.164;2022-08-19T14:33:52;32.10;99.90
21193;DHT22;10754;51.106;7.164;2022-08-19T14:36:19;31.90;99.90
21193;DHT22;10754;51.106;7.164;2022-08-19T14:38:46;31.80;99.90
21193;DHT22;10754;51.106;7.164;2022-08-19T14:41:15;31.70;99.90
21193;DHT22;10754;51.106;7.164;2022-08-19T14:43:42;31.80;99.90
21193;DHT22;10754;51.106;7.164;2022-08-19T14:46:10;31.60;99.90
21193;DHT22;10754;51.106;7.164;2022-08-19T14:48:37;31.40;99.90
21193;DHT22;10754;51.106;7.164;2022-08-19T14:51:04;31.30;99.90
21193;DHT22;10754;51.106;7.164;2022-08-19T14:53:31;31.30;99.90
21193;DHT22;10754;51.106;7.164;2022-08-19T14:55:59;31.20;99.90
21193;DHT22;10754;51.106;7.164;2022-08-19T14:58:24;31.00;99.90
21193;DHT22;10754;51.106;7.164;2022-08-19T15:00:50;30.80;99.90
21193;DHT22;10754;51.106;7.164;2022-08-19T15:03:16;30.80;99.90
21193;DHT22;10754;51.106;7.164;2022-08-19T15:05:41;30.70;99.90
21193;DHT22;10754;51.106;7.164;2022-08-19T15:08:07;30.60;99.90
21193;DHT22;10754;51.106;7.164;2022-08-19T15:10:33;30.50;99.90
21193;DHT22;10754;51.106;7.164;2022-08-19T15:12:58;30.40;99.90
21193;DHT22;10754;51.106;7.164;2022-08-19T15:15:25;30.30;99.90
21193;DHT22;10754;51.106;7.164;2022-08-19T15:17:50;30.40;99.90
21193;DHT22;10754;51.106;7.164;2022-08-19T15:20:18;30.40;99.90
21193;DHT22;10754;51.106;7.164;2022-08-19T15:22:44;30.30;99.90
21193;DHT22;10754;51.106;7.164;2022-08-19T15:25:12;30.20;99.90
21193;DHT22;10754;51.106;7.164;2022-08-19T15:27:38;30.20;99.90
21193;DHT22;10754;51.106;7.164;2022-08-19T15:30:05;30.10;99.90
21193;DHT22;10754;51.106;7.164;2022-08-19T15:32:31;30.00;99.90
21193;DHT22;10754;51.106;7.164;2022-08-19T15:34:57;29.90;99.90
21193;DHT22;10754;51.106;7.164;2022-08-19T15:37:23;29.90;99.90
21193;DHT22;10754;51.106;7.164;2022-08-19T15:39:49;29.80;99.90
21193;DHT22;10754;51.106;7.164;2022-08-19T15:42:15;29.90;99.90
21193;DHT22;10754;51.106;7.164;2022-08-19T15:44:41;29.90;99.90
21193;DHT22;10754;51.106;7.164;2022-08-19T15:47:06;29.80;99.90